sensor_id;sensor_type;location;lat;lon;timestamp;pressure;altitude;pressure_sealevel;temperature;humidity
75543;BME280;64129;53.508;10.476;2023-05-18T00:01:11;102345.38;;;8.26;62.21
75543;BME280;64129;53.508;10.476;2023-05-18T00:03:40;102342.56;;;8.11;61.80
75543;BME280;64129;53.508;10.476;2023-05-18T00:06:06;102338.19;;;8.16;62.50
75543;BME280;64129;53.508;10.476;2023-05-18T00:08:33;102342.59;;;8.14;61.54
75543;BME280;64129;53.508;10.476;2023-05-18T00:11:04;102338.88;;;7.98;61.27
75543;BME280;64129;53.508;10.476;2023-05-18T00:13:31;102332.00;;;8.12;61.50
75543;BME280;64129;53.508;10.476;2023-05-18T00:15:57;102337.22;;;8.06;61.29
75543;BME280;64129;53.508;10.476;2023-05-18T00:18:24;102335.28;;;7.96;61.95
75543;BME280;64129;53.508;10.476;2023-05-18T00:20:53;102341.59;;;8.03;62.04
75543;BME280;64129;53.508;10.476;2023-05-18T00:23:26;102338.09;;;8.07;62.12
75543;BME280;64129;53.508;10.476;2023-05-18T00:25:59;102337.03;;;7.94;62.81
75543;BME280;64129;53.508;10.476;2023-05-18T00:28:26;102330.69;;;7.81;63.90
75543;BME280;64129;53.508;10.476;2023-05-18T00:30:53;102333.81;;;7.53;66.26
75543;BME280;64129;53.508;10.476;2023-05-18T00:33:21;102335.47;;;7.45;66.26
75543;BME280;64129;53.508;10.476;2023-05-18T00:35:47;102337.06;;;7.34;66.43
75543;BME280;64129;53.508;10.476;2023-05-18T00:38:14;102345.13;;;7.41;65.95
75543;BME280;64129;53.508;10.476;2023-05-18T00:40:42;102345.66;;;7.20;66.91
75543;BME280;64129;53.508;10.476;2023-05-18T00:43:10;102336.59;;;7.03;67.57
75543;BME280;64129;53.508;10.476;2023-05-18T00:45:36;102337.16;;;6.87;68.47
75543;BME280;64129;53.508;10.476;2023-05-18T00:48:03;102339.84;;;6.90;68.42
75543;BME280;64129;53.508;10.476;2023-05-18T00:50:30;102344.59;;;7.09;68.16
75543;BME280;64129;53.508;10.476;2023-05-18T00:52:57;102341.81;;;7.00;68.35
75543;BME280;64129;53.508;10.476;2023-05-18T00:55:24;102356.50;;;6.86;68.60
75543;BME280;64129;53.508;10.476;2023-05-18T00:57:54;102342.44;;;6.87;69.27
75543;BME280;64129;53.508;10.476;2023-05-18T01:00:21;102343.59;;;7.01;69.19
75543;BME280;64129;53.508;10.476;2023-05-18T01:02:49;102342.00;;;7.12;68.50
75543;BME280;64129;53.508;10.476;2023-05-18T01:05:16;102347.19;;;7.06;68.64
75543;BME280;64129;53.508;10.476;2023-05-18T01:07:43;102349.06;;;7.13;67.76
75543;BME280;64129;53.508;10.476;2023-05-18T01:10:12;102343.78;;;7.13;67.75
75543;BME280;64129;53.508;10.476;2023-05-18T01:12:48;102352.66;;;7.18;67.57
75543;BME280;64129;53.508;10.476;2023-05-18T01:15:31;102356.19;;;7.17;67.42
75543;BME280;64129;53.508;10.476;2023-05-18T01:18:13;102358.84;;;7.19;67.42
75543;BME280;64129;53.508;10.476;2023-05-18T01:28:24;102356.31;;;7.27;67.11
75543;BME280;64129;53.508;10.476;2023-05-18T01:30:53;102366.00;;;7.26;66.61
75543;BME280;64129;53.508;10.476;2023-05-18T01:33:21;102357.28;;;7.30;66.08
75543;BME280;64129;53.508;10.476;2023-05-18T01:35:47;102359.69;;;7.16;66.78
75543;BME280;64129;53.508;10.476;2023-05-18T01:38:16;102354.63;;;7.29;66.55
75543;BME280;64129;53.508;10.476;2023-05-18T01:43:36;102361.72;;;7.33;66.53
75543;BME280;64129;53.508;10.476;2023-05-18T01:46:56;102360.03;;;7.36;67.00
75543;BME280;64129;53.508;10.476;2023-05-18T01:49:01;102358.88;;;7.22;67.39
75543;BME280;64129;53.508;10.476;2023-05-18T01:51:32;102363.56;;;7.37;66.36
75543;BME280;64129;53.508;10.476;2023-05-18T01:54:04;102357.41;;;7.39;65.42
75543;BME280;64129;53.508;10.476;2023-05-18T01:56:33;102365.25;;;7.32;65.48
75543;BME280;64129;53.508;10.476;2023-05-18T01:59:00;102365.47;;;7.47;64.90
75543;BME280;64129;53.508;10.476;2023-05-18T02:01:28;102372.25;;;7.30;64.36
75543;BME280;64129;53.508;10.476;2023-05-18T02:03:55;102363.69;;;7.46;63.90
75543;BME280;64129;53.508;10.476;2023-05-18T02:06:21;102376.03;;;7.47;64.49
75543;BME280;64129;53.508;10.476;2023-05-18T02:08:48;102367.06;;;7.36;64.33
75543;BME280;64129;53.508;10.476;2023-05-18T02:11:15;102372.25;;;7.30;63.72
75543;BME280;64129;53.508;10.476;2023-05-18T02:13:41;102367.16;;;7.42;65.07
75543;BME280;64129;53.508;10.476;2023-05-18T02:16:08;102368.03;;;7.42;64.83
75543;BME280;64129;53.508;10.476;2023-05-18T02:18:35;102375.13;;;7.45;65.71
75543;BME280;64129;53.508;10.476;2023-05-18T02:21:02;102364.47;;;7.40;65.13
75543;BME280;64129;53.508;10.476;2023-05-18T02:23:30;102365.47;;;7.47;65.09
75543;BME280;64129;53.508;10.476;2023-05-18T02:25:56;102361.91;;;7.45;64.97
75543;BME280;64129;53.508;10.476;2023-05-18T02:28:24;102375.09;;;7.43;65.39
75543;BME280;64129;53.508;10.476;2023-05-18T02:30:50;102374.25;;;7.46;63.96
75543;BME280;64129;53.508;10.476;2023-05-18T02:33:17;102373.38;;;7.45;64.02
75543;BME280;64129;53.508;10.476;2023-05-18T02:35:44;102372.25;;;7.30;64.62
75543;BME280;64129;53.508;10.476;2023-05-18T02:38:12;102378.69;;;7.48;65.11
75543;BME280;64129;53.508;10.476;2023-05-18T02:40:38;102383.88;;;7.41;64.36
75543;BME280;64129;53.508;10.476;2023-05-18T02:43:05;102382.22;;;7.47;64.70
75543;BME280;64129;53.508;10.476;2023-05-18T02:45:31;102377.63;;;7.36;64.36
75543;BME280;64129;53.508;10.476;2023-05-18T02:47:58;102376.00;;;7.44;65.21
75543;BME280;64129;53.508;10.476;2023-05-18T02:50:25;102370.66;;;7.41;65.04
75543;BME280;64129;53.508;10.476;2023-05-18T02:52:51;102379.53;;;7.46;64.20
75543;BME280;64129;53.508;10.476;2023-05-18T02:55:18;102381.31;;;7.47;64.44
75543;BME280;64129;53.508;10.476;2023-05-18T02:58:02;102381.31;;;7.47;64.59
75543;BME280;64129;53.508;10.476;2023-05-18T03:01:01;102384.75;;;7.40;64.36
75543;BME280;64129;53.508;10.476;2023-05-18T03:03:35;102379.38;;;7.34;64.57
75543;BME280;64129;53.508;10.476;2023-05-18T03:06:02;102384.69;;;7.37;65.14
75543;BME280;64129;53.508;10.476;2023-05-18T03:08:28;102381.41;;;7.53;65.41
75543;BME280;64129;53.508;10.476;2023-05-18T03:10:57;102388.47;;;7.54;64.29
75543;BME280;64129;53.508;10.476;2023-05-18T03:13:24;102383.06;;;7.45;65.50
75543;BME280;64129;53.508;10.476;2023-05-18T03:15:51;102377.69;;;7.39;65.29
75543;BME280;64129;53.508;10.476;2023-05-18T03:18:18;102381.88;;;7.28;66.18
75543;BME280;64129;53.508;10.476;2023-05-18T03:20:44;102377.38;;;7.20;65.77
75543;BME280;64129;53.508;10.476;2023-05-18T03:23:12;102383.06;;;7.45;66.11
75543;BME280;64129;53.508;10.476;2023-05-18T03:25:39;102381.31;;;7.47;66.14
75543;BME280;64129;53.508;10.476;2023-05-18T03:28:05;102382.81;;;7.30;66.50
75543;BME280;64129;53.508;10.476;2023-05-18T03:30:32;102384.88;;;7.49;64.53
75543;BME280;64129;53.508;10.476;2023-05-18T03:33:02;102379.19;;;7.25;66.23
75543;BME280;64129;53.508;10.476;2023-05-18T03:35:29;102377.41;;;7.24;66.39
75543;BME280;64129;53.508;10.476;2023-05-18T03:37:56;102384.53;;;7.28;66.23
75543;BME280;64129;53.508;10.476;2023-05-18T03:40:23;102377.59;;;7.33;65.66
75543;BME280;64129;53.508;10.476;2023-05-18T03:42:50;102388.72;;;7.15;66.64
75543;BME280;64129;53.508;10.476;2023-05-18T03:45:17;102386.53;;;7.41;65.65
75543;BME280;64129;53.508;10.476;2023-05-18T03:47:44;102384.66;;;7.34;66.52
75543;BME280;64129;53.508;10.476;2023-05-18T03:50:11;102386.19;;;7.23;66.14
75543;BME280;64129;53.508;10.476;2023-05-18T03:52:38;102389.06;;;7.35;65.82
75543;BME280;64129;53.508;10.476;2023-05-18T03:55:06;102393.44;;;7.33;66.14
75543;BME280;64129;53.508;10.476;2023-05-18T03:57:32;102389.94;;;7.34;66.10
75543;BME280;64129;53.508;10.476;2023-05-18T04:00:00;102386.25;;;7.26;65.61
75543;BME280;64129;53.508;10.476;2023-05-18T04:02:29;102390.97;;;7.45;65.38
75543;BME280;64129;53.508;10.476;2023-05-18T04:04:56;102396.06;;;7.31;65.75
75543;BME280;64129;53.508;10.476;2023-05-18T04:07:25;102396.03;;;7.30;66.64
75543;BME280;64129;53.508;10.476;2023-05-18T04:09:53;102398.88;;;7.42;66.91
75543;BME280;64129;53.508;10.476;2023-05-18T04:12:21;102400.66;;;7.43;65.41
75543;BME280;64129;53.508;10.476;2023-05-18T04:14:47;102395.44;;;7.47;66.10
75543;BME280;64129;53.508;10.476;2023-05-18T04:17:18;102400.81;;;7.55;66.46
75543;BME280;64129;53.508;10.476;2023-05-18T04:19:48;102401.75;;;7.57;67.17
75543;BME280;64129;53.508;10.476;2023-05-18T04:22:15;102406.03;;;7.49;65.68
75543;BME280;64129;53.508;10.476;2023-05-18T04:24:43;102411.25;;;7.46;65.65
75543;BME280;64129;53.508;10.476;2023-05-18T04:27:13;102408.78;;;7.57;65.10
75543;BME280;64129;53.508;10.476;2023-05-18T04:29:40;102418.34;;;7.47;64.84
75543;BME280;64129;53.508;10.476;2023-05-18T04:32:09;102428.72;;;7.35;65.77
75543;BME280;64129;53.508;10.476;2023-05-18T04:34:36;102422.03;;;7.58;64.89
75543;BME280;64129;53.508;10.476;2023-05-18T04:37:03;102425.66;;;7.63;65.15
75543;BME280;64129;53.508;10.476;2023-05-18T04:39:33;102426.53;;;7.64;64.77
75543;BME280;64129;53.508;10.476;2023-05-18T04:42:05;102429.94;;;7.58;64.29
75543;BME280;64129;53.508;10.476;2023-05-18T04:44:32;102437.19;;;7.68;64.81
75543;BME280;64129;53.508;10.476;2023-05-18T04:46:59;102433.00;;;7.82;64.72
75543;BME280;64129;53.508;10.476;2023-05-18T04:49:26;102440.56;;;7.60;64.46
75543;BME280;64129;53.508;10.476;2023-05-18T04:51:54;102447.94;;;7.80;65.31
75543;BME280;64129;53.508;10.476;2023-05-18T04:54:22;102454.19;;;7.86;64.36
75543;BME280;64129;53.508;10.476;2023-05-18T04:56:50;102447.81;;;7.71;63.61
75543;BME280;64129;53.508;10.476;2023-05-18T04:59:17;102449.78;;;7.85;64.10
75543;BME280;64129;53.508;10.476;2023-05-18T05:01:44;102448.38;;;7.52;64.29
75543;BME280;64129;53.508;10.476;2023-05-18T05:04:12;102451.50;;;7.82;63.91
75543;BME280;64129;53.508;10.476;2023-05-18T05:06:38;102451.63;;;7.90;63.34
75543;BME280;64129;53.508;10.476;2023-05-18T05:09:05;102452.53;;;7.92;63.04
75543;BME280;64129;53.508;10.476;2023-05-18T05:11:31;102458.75;;;7.97;62.76
75543;BME280;64129;53.508;10.476;2023-05-18T05:13:58;102453.66;;;8.08;61.76
75543;BME280;64129;53.508;10.476;2023-05-18T05:16:25;102449.53;;;8.31;61.68
75543;BME280;64129;53.508;10.476;2023-05-18T05:18:51;102454.81;;;8.30;62.15
75543;BME280;64129;53.508;10.476;2023-05-18T05:21:18;102457.44;;;8.27;60.87
75543;BME280;64129;53.508;10.476;2023-05-18T05:23:45;102456.50;;;8.23;61.05
75543;BME280;64129;53.508;10.476;2023-05-18T05:26:11;102459.38;;;8.35;60.31
75543;BME280;64129;53.508;10.476;2023-05-18T05:28:38;102459.09;;;8.20;60.61
75543;BME280;64129;53.508;10.476;2023-05-18T05:31:05;102471.94;;;8.53;61.51
75543;BME280;64129;53.508;10.476;2023-05-18T05:33:32;102477.31;;;8.61;60.79
75543;BME280;64129;53.508;10.476;2023-05-18T05:35:58;102469.19;;;8.46;58.97
75543;BME280;64129;53.508;10.476;2023-05-18T05:38:25;102474.72;;;8.64;59.48
75543;BME280;64129;53.508;10.476;2023-05-18T05:40:52;102470.38;;;8.67;59.07
75543;BME280;64129;53.508;10.476;2023-05-18T05:43:18;102476.72;;;8.83;58.43
75543;BME280;64129;53.508;10.476;2023-05-18T05:45:45;102467.97;;;8.90;58.86
75543;BME280;64129;53.508;10.476;2023-05-18T05:48:12;102478.59;;;8.93;59.13
75543;BME280;64129;53.508;10.476;2023-05-18T05:50:39;102481.00;;;8.72;57.54
75543;BME280;64129;53.508;10.476;2023-05-18T05:53:06;102488.94;;;8.69;57.81
75543;BME280;64129;53.508;10.476;2023-05-18T05:55:35;102483.69;;;8.75;57.29
75543;BME280;64129;53.508;10.476;2023-05-18T05:58:11;102492.59;;;8.80;58.04
75543;BME280;64129;53.508;10.476;2023-05-18T06:00:39;102499.44;;;8.66;57.46
75543;BME280;64129;53.508;10.476;2023-05-18T06:03:05;102498.94;;;8.96;58.44
75543;BME280;64129;53.508;10.476;2023-05-18T06:05:35;102502.69;;;9.15;57.27
75543;BME280;64129;53.508;10.476;2023-05-18T06:08:05;102494.81;;;9.21;56.66
75543;BME280;64129;53.508;10.476;2023-05-18T06:10:32;102499.78;;;8.93;57.66
75543;BME280;64129;53.508;10.476;2023-05-18T06:12:58;102501.59;;;8.97;57.23
75543;BME280;64129;53.508;10.476;2023-05-18T06:15:37;102500.72;;;8.97;57.76
75543;BME280;64129;53.508;10.476;2023-05-18T06:18:04;102493.25;;;9.41;57.59
75543;BME280;64129;53.508;10.476;2023-05-18T06:20:31;102498.44;;;9.32;56.07
75543;BME280;64129;53.508;10.476;2023-05-18T06:22:58;102504.63;;;9.31;56.11
75543;BME280;64129;53.508;10.476;2023-05-18T06:25:45;102498.38;;;9.26;56.14
75543;BME280;64129;53.508;10.476;2023-05-18T06:28:31;102505.53;;;9.36;55.42
75543;BME280;64129;53.508;10.476;2023-05-18T06:31:06;102508.78;;;9.04;55.33
75543;BME280;64129;53.508;10.476;2023-05-18T06:33:56;102513.31;;;9.16;55.18
75543;BME280;64129;53.508;10.476;2023-05-18T06:36:22;102511.25;;;8.92;55.90
75543;BME280;64129;53.508;10.476;2023-05-18T06:38:49;102513.47;;;9.31;56.53
75543;BME280;64129;53.508;10.476;2023-05-18T06:41:16;102517.59;;;9.03;56.42
75543;BME280;64129;53.508;10.476;2023-05-18T06:43:42;102513.38;;;9.24;55.74
75543;BME280;64129;53.508;10.476;2023-05-18T06:46:23;102515.63;;;8.87;54.68
75543;BME280;64129;53.508;10.476;2023-05-18T06:48:53;102519.53;;;9.20;56.76
75543;BME280;64129;53.508;10.476;2023-05-18T06:51:20;102516.81;;;9.14;55.73
75543;BME280;64129;53.508;10.476;2023-05-18T06:53:47;102512.66;;;9.37;53.61
75543;BME280;64129;53.508;10.476;2023-05-18T06:56:14;102506.72;;;9.68;55.70
75543;BME280;64129;53.508;10.476;2023-05-18T06:58:43;102507.69;;;9.74;55.17
75543;BME280;64129;53.508;10.476;2023-05-18T07:01:11;102504.19;;;9.81;53.69
75543;BME280;64129;53.508;10.476;2023-05-18T07:03:37;102507.50;;;9.52;53.10
75543;BME280;64129;53.508;10.476;2023-05-18T07:06:04;102512.13;;;9.76;52.68
75543;BME280;64129;53.508;10.476;2023-05-18T07:08:31;102514.50;;;9.44;54.29
75543;BME280;64129;53.508;10.476;2023-05-18T07:10:58;102514.09;;;10.05;55.92
75543;BME280;64129;53.508;10.476;2023-05-18T07:13:27;102515.19;;;10.32;53.18
75543;BME280;64129;53.508;10.476;2023-05-18T07:15:54;102520.66;;;10.57;52.55
75543;BME280;64129;53.508;10.476;2023-05-18T07:18:20;102516.22;;;10.56;52.22
75543;BME280;64129;53.508;10.476;2023-05-18T07:20:47;102526.88;;;10.59;51.91
75543;BME280;64129;53.508;10.476;2023-05-18T07:23:14;102526.75;;;10.39;53.06
75543;BME280;64129;53.508;10.476;2023-05-18T07:25:40;102524.19;;;10.53;53.14
75543;BME280;64129;53.508;10.476;2023-05-18T07:28:07;102528.59;;;10.48;52.64
75543;BME280;64129;53.508;10.476;2023-05-18T07:30:33;102526.72;;;10.35;52.43
75543;BME280;64129;53.508;10.476;2023-05-18T07:33:00;102529.53;;;10.62;51.74
75543;BME280;64129;53.508;10.476;2023-05-18T07:35:27;102534.78;;;10.44;51.78
75543;BME280;64129;53.508;10.476;2023-05-18T07:37:54;102530.47;;;10.72;51.23
75543;BME280;64129;53.508;10.476;2023-05-18T07:40:20;102538.53;;;10.85;51.73
75543;BME280;64129;53.508;10.476;2023-05-18T07:42:47;102536.75;;;10.90;50.37
75543;BME280;64129;53.508;10.476;2023-05-18T07:45:14;102534.19;;;11.15;49.89
75543;BME280;64129;53.508;10.476;2023-05-18T07:47:40;102528.13;;;11.89;49.83
75543;BME280;64129;53.508;10.476;2023-05-18T07:50:07;102536.94;;;11.67;49.03
75543;BME280;64129;53.508;10.476;2023-05-18T07:52:34;102533.38;;;11.75;50.20
75543;BME280;64129;53.508;10.476;2023-05-18T07:55:01;102541.28;;;11.13;48.81
75543;BME280;64129;53.508;10.476;2023-05-18T07:57:28;102539.28;;;10.60;49.91
75543;BME280;64129;53.508;10.476;2023-05-18T07:59:56;102541.91;;;10.54;50.45
75543;BME280;64129;53.508;10.476;2023-05-18T08:02:22;102544.34;;;10.20;50.73
75543;BME280;64129;53.508;10.476;2023-05-18T08:04:49;102544.31;;;10.19;50.84
75543;BME280;64129;53.508;10.476;2023-05-18T08:07:15;102549.03;;;10.61;50.30
75543;BME280;64129;53.508;10.476;2023-05-18T08:09:43;102547.28;;;10.69;48.87
75543;BME280;64129;53.508;10.476;2023-05-18T08:12:10;102538.50;;;10.76;49.08
75543;BME280;64129;53.508;10.476;2023-05-18T08:14:36;102543.97;;;11.22;48.19
75543;BME280;64129;53.508;10.476;2023-05-18T08:17:03;102540.53;;;11.78;48.18
75543;BME280;64129;53.508;10.476;2023-05-18T08:19:30;102528.06;;;12.32;47.88
75543;BME280;64129;53.508;10.476;2023-05-18T08:21:56;102532.56;;;12.14;47.43
75543;BME280;64129;53.508;10.476;2023-05-18T08:24:23;102533.28;;;12.68;45.99
75543;BME280;64129;53.508;10.476;2023-05-18T08:26:49;102530.50;;;12.99;45.77
75543;BME280;64129;53.508;10.476;2023-05-18T08:29:21;102531.38;;;13.04;45.44
75543;BME280;64129;53.508;10.476;2023-05-18T08:31:47;102526.72;;;13.44;44.78
75543;BME280;64129;53.508;10.476;2023-05-18T08:34:14;102527.31;;;14.75;47.54
75543;BME280;64129;53.508;10.476;2023-05-18T08:36:41;102516.16;;;14.33;43.50
75543;BME280;64129;53.508;10.476;2023-05-18T08:39:11;102516.81;;;15.25;43.64
75543;BME280;64129;53.508;10.476;2023-05-18T08:41:47;102516.84;;;15.82;42.65
75543;BME280;64129;53.508;10.476;2023-05-18T08:44:20;102524.34;;;14.99;40.49
75543;BME280;64129;53.508;10.476;2023-05-18T08:46:50;102520.72;;;15.66;42.08
75543;BME280;64129;53.508;10.476;2023-05-18T08:49:18;102517.81;;;15.17;43.24
75543;BME280;64129;53.508;10.476;2023-05-18T08:51:54;102510.84;;;15.68;42.16
75543;BME280;64129;53.508;10.476;2023-05-18T08:54:22;102514.44;;;15.67;40.55
75543;BME280;64129;53.508;10.476;2023-05-18T08:56:50;102522.97;;;14.64;41.57
75543;BME280;64129;53.508;10.476;2023-05-18T08:59:24;102512.13;;;15.41;40.51
75543;BME280;64129;53.508;10.476;2023-05-18T09:01:52;102508.69;;;15.88;40.53
75543;BME280;64129;53.508;10.476;2023-05-18T09:04:20;102512.22;;;16.41;38.73
75543;BME280;64129;53.508;10.476;2023-05-18T09:06:47;102509.69;;;15.83;37.45
75543;BME280;64129;53.508;10.476;2023-05-18T09:09:15;102515.25;;;15.72;40.49
75543;BME280;64129;53.508;10.476;2023-05-18T09:11:45;102521.00;;;16.02;39.84
75543;BME280;64129;53.508;10.476;2023-05-18T09:14:12;102520.91;;;15.49;40.12
75543;BME280;64129;53.508;10.476;2023-05-18T09:16:39;102522.59;;;14.95;40.54
75543;BME280;64129;53.508;10.476;2023-05-18T09:19:05;102513.59;;;14.25;41.08
75543;BME280;64129;53.508;10.476;2023-05-18T09:21:32;102519.81;;;14.26;41.71
75543;BME280;64129;53.508;10.476;2023-05-18T09:23:59;102516.16;;;15.10;39.80
75543;BME280;64129;53.508;10.476;2023-05-18T09:26:26;102504.06;;;14.78;40.44
75543;BME280;64129;53.508;10.476;2023-05-18T09:28:53;102506.19;;;14.50;41.71
75543;BME280;64129;53.508;10.476;2023-05-18T09:31:21;102512.81;;;16.09;40.11
75543;BME280;64129;53.508;10.476;2023-05-18T09:33:50;102504.13;;;15.97;38.43
75543;BME280;64129;53.508;10.476;2023-05-18T09:36:23;102500.78;;;16.30;37.68
75543;BME280;64129;53.508;10.476;2023-05-18T09:38:50;102504.72;;;16.57;37.66
75543;BME280;64129;53.508;10.476;2023-05-18T09:41:17;102499.50;;;16.05;38.56
75543;BME280;64129;53.508;10.476;2023-05-18T09:43:46;102505.88;;;15.98;37.75
75543;BME280;64129;53.508;10.476;2023-05-18T09:46:13;102495.78;;;16.12;38.25
75543;BME280;64129;53.508;10.476;2023-05-18T09:48:46;102489.78;;;16.45;38.25
75543;BME280;64129;53.508;10.476;2023-05-18T09:51:13;102500.78;;;16.30;37.99
75543;BME280;64129;53.508;10.476;2023-05-18T09:53:47;102494.88;;;16.58;38.38
75543;BME280;64129;53.508;10.476;2023-05-18T09:56:16;102490.66;;;16.00;38.63
75543;BME280;64129;53.508;10.476;2023-05-18T09:58:44;102487.81;;;16.97;38.73
75543;BME280;64129;53.508;10.476;2023-05-18T10:01:10;102496.47;;;16.71;37.51
75543;BME280;64129;53.508;10.476;2023-05-18T10:03:37;102502.09;;;16.56;37.35
75543;BME280;64129;53.508;10.476;2023-05-18T10:06:08;102500.06;;;16.70;37.44
75543;BME280;64129;53.508;10.476;2023-05-18T10:08:36;102489.19;;;16.76;39.11
75543;BME280;64129;53.508;10.476;2023-05-18T10:11:03;102486.59;;;16.25;38.67
75543;BME280;64129;53.508;10.476;2023-05-18T10:13:31;102488.84;;;16.02;38.83
75543;BME280;64129;53.508;10.476;2023-05-18T10:16:01;102482.44;;;16.97;37.64
75543;BME280;64129;53.508;10.476;2023-05-18T10:18:29;102492.06;;;16.65;37.61
75543;BME280;64129;53.508;10.476;2023-05-18T10:21:02;102490.00;;;16.79;38.04
75543;BME280;64129;53.508;10.476;2023-05-18T10:23:31;102485.66;;;17.51;36.54
75543;BME280;64129;53.508;10.476;2023-05-18T10:25:58;102486.34;;;17.59;36.70
75543;BME280;64129;53.508;10.476;2023-05-18T10:28:27;102484.41;;;18.01;36.45
75543;BME280;64129;53.508;10.476;2023-05-18T10:30:57;102478.44;;;17.90;36.31
75543;BME280;64129;53.508;10.476;2023-05-18T10:33:26;102477.00;;;18.11;34.98
75543;BME280;64129;53.508;10.476;2023-05-18T10:35:54;102479.59;;;18.14;34.68
75543;BME280;64129;53.508;10.476;2023-05-18T10:38:26;102480.81;;;16.90;34.28
75543;BME280;64129;53.508;10.476;2023-05-18T10:40:57;102473.69;;;16.89;34.96
75543;BME280;64129;53.508;10.476;2023-05-18T10:43:24;102474.66;;;16.86;36.26
75543;BME280;64129;53.508;10.476;2023-05-18T10:46:00;102469.06;;;17.34;36.05
75543;BME280;64129;53.508;10.476;2023-05-18T10:48:28;102473.13;;;18.21;36.06
75543;BME280;64129;53.508;10.476;2023-05-18T10:50:56;102473.16;;;18.52;35.60
75543;BME280;64129;53.508;10.476;2023-05-18T10:53:25;102476.56;;;18.57;34.18
75543;BME280;64129;53.508;10.476;2023-05-18T10:55:53;102474.22;;;18.47;34.03
75543;BME280;64129;53.508;10.476;2023-05-18T10:58:22;102470.47;;;18.20;34.70
75543;BME280;64129;53.508;10.476;2023-05-18T11:00:53;102471.75;;;17.72;34.38
75543;BME280;64129;53.508;10.476;2023-05-18T11:03:21;102468.22;;;18.03;34.40
75543;BME280;64129;53.508;10.476;2023-05-18T11:05:50;102466.66;;;18.59;34.13
75543;BME280;64129;53.508;10.476;2023-05-18T11:08:24;102463.25;;;18.53;34.13
75543;BME280;64129;53.508;10.476;2023-05-18T11:11:08;102461.50;;;18.52;34.50
75543;BME280;64129;53.508;10.476;2023-05-18T11:13:35;102472.97;;;18.58;32.22
75543;BME280;64129;53.508;10.476;2023-05-18T11:16:05;102465.06;;;18.52;32.00
75543;BME280;64129;53.508;10.476;2023-05-18T11:18:38;102463.28;;;19.40;32.99
75543;BME280;64129;53.508;10.476;2023-05-18T11:26:49;102464.19;;;18.83;32.64
75543;BME280;64129;53.508;10.476;2023-05-18T11:29:16;102461.25;;;17.96;33.10
75543;BME280;64129;53.508;10.476;2023-05-18T11:31:53;102459.28;;;18.04;31.97
75543;BME280;64129;53.508;10.476;2023-05-18T11:34:36;102454.81;;;19.24;32.15
75543;BME280;64129;53.508;10.476;2023-05-18T11:37:06;102447.53;;;19.55;32.87
75543;BME280;64129;53.508;10.476;2023-05-18T11:39:35;102442.69;;;19.37;33.32
75543;BME280;64129;53.508;10.476;2023-05-18T11:42:09;102437.31;;;19.37;34.34
75543;BME280;64129;53.508;10.476;2023-05-18T11:44:36;102443.31;;;18.60;34.39
75543;BME280;64129;53.508;10.476;2023-05-18T11:47:10;102442.19;;;19.80;32.06
75543;BME280;64129;53.508;10.476;2023-05-18T11:49:45;102438.19;;;20.17;32.06
75543;BME280;64129;53.508;10.476;2023-05-18T11:52:18;102436.31;;;19.40;30.63
75543;BME280;64129;53.508;10.476;2023-05-18T11:54:55;102437.72;;;19.53;30.69
75543;BME280;64129;53.508;10.476;2023-05-18T11:57:37;102436.78;;;20.30;30.98
75543;BME280;64129;53.508;10.476;2023-05-18T12:00:06;102433.50;;;20.47;31.49
75543;BME280;64129;53.508;10.476;2023-05-18T12:02:37;102421.34;;;20.82;32.21
75543;BME280;64129;53.508;10.476;2023-05-18T12:05:08;102434.66;;;20.63;31.14
75543;BME280;64129;53.508;10.476;2023-05-18T12:07:35;102437.22;;;19.40;30.23
75543;BME280;64129;53.508;10.476;2023-05-18T12:10:12;102432.44;;;20.51;31.01
75543;BME280;64129;53.508;10.476;2023-05-18T12:12:46;102429.38;;;20.83;30.94
75543;BME280;64129;53.508;10.476;2023-05-18T12:15:13;102425.00;;;20.79;31.12
75543;BME280;64129;53.508;10.476;2023-05-18T12:17:41;102422.81;;;20.19;30.77
75543;BME280;64129;53.508;10.476;2023-05-18T12:20:16;102422.03;;;20.87;31.22
75543;BME280;64129;53.508;10.476;2023-05-18T12:22:51;102422.47;;;20.53;31.86
75543;BME280;64129;53.508;10.476;2023-05-18T12:25:19;102427.00;;;20.52;31.63
75543;BME280;64129;53.508;10.476;2023-05-18T12:27:47;102429.50;;;19.57;31.55
75543;BME280;64129;53.508;10.476;2023-05-18T12:32:45;102410.03;;;21.16;29.63
75543;BME280;64129;53.508;10.476;2023-05-18T12:35:12;102410.53;;;21.27;31.08
75543;BME280;64129;53.508;10.476;2023-05-18T12:37:45;102413.88;;;20.89;29.98
75543;BME280;64129;53.508;10.476;2023-05-18T12:40:13;102414.78;;;21.33;31.16
75543;BME280;64129;53.508;10.476;2023-05-18T12:42:49;102415.13;;;21.45;30.82
75543;BME280;64129;53.508;10.476;2023-05-18T12:45:17;102411.22;;;21.95;30.78
75543;BME280;64129;53.508;10.476;2023-05-18T12:47:43;102401.78;;;21.83;30.72
75543;BME280;64129;53.508;10.476;2023-05-18T12:50:10;102412.72;;;21.16;29.80
75543;BME280;64129;53.508;10.476;2023-05-18T12:52:38;102402.84;;;21.16;30.73
75543;BME280;64129;53.508;10.476;2023-05-18T12:55:07;102403.34;;;21.26;29.48
75543;BME280;64129;53.508;10.476;2023-05-18T12:57:36;102408.84;;;21.87;30.22
75543;BME280;64129;53.508;10.476;2023-05-18T13:00:07;102403.41;;;21.67;30.58
75543;BME280;64129;53.508;10.476;2023-05-18T13:02:37;102407.75;;;22.32;28.21
75543;BME280;64129;53.508;10.476;2023-05-18T13:05:08;102399.25;;;22.39;28.55
75543;BME280;64129;53.508;10.476;2023-05-18T13:10:11;102397.09;;;22.08;29.14
75543;BME280;64129;53.508;10.476;2023-05-18T13:12:44;102404.63;;;22.79;28.39
75543;BME280;64129;53.508;10.476;2023-05-18T13:15:15;102395.03;;;23.09;28.01